Balsam Lake, Wisconsin
Current Conditions -  °F | °C
As of 4:55 PM on Thursday 23 Oct 2014 (Local Time) from KOEO Reporting Station
Clear Clear  
Wind Chill: 62°   Ceiling: Unl
Heat Index: 62°   Visibility: 10mi
Dew Point: 53°   Wind: 3mph
Humidity: 71%   Direction: 140°SE
Pressure: 29.99"   Gusts: NA
Location:  45.45°N, 92.45°W
Report Text: KOEO 232155Z AUTO 14003KT 10SM CLR 17/12 A2999 RMK AO2 T01670115
Loading
Personal Weather Stations






























Interactive Weather Map
Tropical Storm Tracking
New forecast layout! Learn more

10-Day Weather Forecast

Advertisements
Track Severe Weather on mobile